RJNG Airport Information

Runway Information
Runway 10 Length 8860 ft width 150 ft Elevation 110 ft Threshold N/A Heading 92
Runway 28 Length 8860 ft Width 150 ft Elevation 143 ft Threshold N/A Heading 272
Airport Frequencies
Type APP Name NAGOYA APP Frequency 120.3 MHZ
Type DEP Name NAGOYA DEP Frequency 120.7 MHZ
Type GND Name GND Frequency 27.58 MHZ
Type TWR Name TWR Frequency 122 MHZ
Airport Navaids
Type TACAN Name Gifu Frequency 112250 KHZ
Airport Weather Information & NOTAM
ADDS - METARS form results

(1914 UTC 27 November 2022)
Data provider http://aviationweather.gov/metar/data/
 
METAR text: RJNG 271816Z VRB02KT 9999 FEW030 BKN040 BKN/// 10/03 Q1024 RMK 1CU030 5SC040 A3026
Conditions at: RJNG (GIFU (JASDF) , JP) observed 1816 UTC 27 November 2022
Temperature: 10.0°C (50°F)
Dewpoint: 3.0°C (37°F) [RH = 62%]
Pressure (altimeter): 30.24 inches Hg (1024.0 mb)
Winds: variable direction winds at 2 MPH (2 knots; 1.0 m/s)
Visibility: 6 or more miles (10+ km)
Ceiling: 4000 feet AGL
Clouds: few clouds at 3000 feet AGL
broken clouds at 4000 feet AGL
Weather: no significant weather observed at this time